Enter the Airport ICAO Code

Search by Airport or City

Current Weather

KFXE | Fort Lauderdale Executive Airport

Fort Lauderdale, Florida, United States

Last Update 50 Minutes Ago

Light Rain

Temperature of 25 ºC

Light to Moderate Winds from North

Temperature

25 ºC

Dew Point Temperature

25 ºC

Relative Humidity

100 %

Wind Direction

North (020º, Without Significant Variations)

Wind Velocity

15 km/h (08 kt)

Gusts

None

Visibility

Reduced to 8 Miles

Sea Level Pressure

30.03 inHg (Inches of Mercury)

Layers of Clouds

30% to 60% of Sky Covered from 762 mts (2500 ft) Above Ground Level.

60% to 90% of Sky Covered from 3353 mts (11000 ft) Above Ground Level.

METAR KFXE 211253Z 02008KT 8SM -RA SCT025 BKN110 25/25 A3003 RMK AO2 SLP171 P0047 T02500250

Weather Forecast

KFXE | Fort Lauderdale Executive Airport

Fort Lauderdale, Florida, United States

Forecast valid for the next 22 Hours

From now on it is expected:

Rain Shower

Light to Moderate Winds from East

In 2 hours it is expected the begining of:

Thunderstorm

Moderate Winds from East

In 10 hours it is expected the begining of:

Partly Cloudy Sky

Light to Moderate Winds from Variable Directions

Maximum Temperature

No Data

Minimum Temperature

No Data

TAF KFXE 211123Z 2112/2212 VRB05KT P6SM VCSH SCT025 SCT060 TEMPO 2112/2113 VRB10KT 5SM SHRA BKN025 FM211300 09008KT P6SM VCSH SCT030 SCT060 FM211600 10010KT P6SM VCTS SCT030CB BKN050 FM220000 VRB05KT P6SM FEW025 SCT250